Meteo Giornale » Osservazioni meteo Stati Uniti (USA) » South Lake Tahoe
ore: 09:53 - Osservazioni Meteo South Lake Tahoe
Lat. 38° 53' N Lon. 119° 59' W Alt. 1909 metri s.l.m.
17 °C
Sereno
Temp. 24 Ore
7 °C
24 °C
Sud
24 Km/h
Dew point -3 °C
Umidità 25 %
Visibilità 10 Km
Il sole sorge alle ore 06:29
Il sole tramonta alle ore 19:30
| Data e Ora | Cielo e Fenomeni | T °C | DP °C | Um. % | Pres. hPa | Vis. km | Vento km/h | |
|---|---|---|---|---|---|---|---|---|
| Oggi h: 09:53 | Sereno | 17 | -3 | 25 | 1018 | 10 | S 24 | |
| Oggi h: 08:53 | Sereno | 16 | -1 | 31 | 1018 | 10 | S 14.8 | |
| Oggi h: 07:53 | Sereno | 14 | -1 | 35 | 1017 | 10 | S 14.8 | |
| Oggi h: 06:53 | Sereno | 7 | -2 | 52 | 1017 | 10 | N 5.5 | |
| Oggi h: 05:53 | Sereno | 9 | -2 | 45 | 1017 | 10 | N 0 | |
| Oggi h: 04:53 | Sereno | 11 | -2 | 40 | 1018 | 10 | N 0 | |
| Oggi h: 03:53 | Sereno | 11 | 2 | 53 | 1017 | 10 | N 5.5 | |
| Oggi h: 02:53 | Sereno | 13 | 2 | 47 | 1017 | 10 | N 9.3 | |
| Oggi h: 01:53 | Sereno | 14 | 0 | 38 | 1017 | 10 | S/SO 7.4 | |
| Oggi h: 00:53 | Sereno | 14 | -1 | 35 | 1018 | 10 | N 9.3 | |
| Ieri h: 23:53 | Sereno | 14 | 0 | 38 | 1018 | 10 | S/SO 7.4 | |
| Ieri h: 22:53 | Sereno | 13 | 2 | 47 | 1018 | 10 | S/SO 7.4 | |
| Ieri h: 21:53 | Sereno | 11 | 4 | 61 | 1018 | 10 | N 0 | |
| Ieri h: 20:53 | Sereno | 13 | 4 | 54 | 1018 | 10 | N 0 | |
| Ieri h: 19:53 | Sereno | 16 | 4 | 44 | 1018 | 10 | S/SO 9.3 | |
| Ieri h: 18:53 | Sereno | 18 | 3 | 36 | 1017 | 10 | S/SO 14.8 | |
| Ieri h: 17:53 | Sereno | 20 | 4 | 34 | 1018 | 10 | S 20.3 | |
| Ieri h: 16:53 | Sereno | 21 | 5 | 35 | 1018 | 10 | S 13 | |
| Ieri h: 15:53 | Sereno | 23 | 4 | 28 | 1018 | 10 | S/SO 22.2 | |
| Ieri h: 14:53 | Sereno | 23 | 2 | 25 | 1018 | 10 | SO 14.8 | |
| Ieri h: 13:53 | Sereno | 24 | 0 | 20 | 1018 | 10 | N 7.4 | |
| Ieri h: 12:53 | Sereno | 23 | 1 | 23 | 1019 | 10 | N 5.5 | |
| Ieri h: 11:53 | Sereno | 23 | 3 | 26 | 1019 | 10 | N 9.3 | |
| Ieri h: 10:53 | Sereno | 21 | 7 | 40 | 1019 | 10 | N 9.3 | |



